Time;durP1;ratioP1;P1;durP2;ratioP2;P2;SDS_P1;SDS_P2;PMS_P1;PMS_P2;Temp;Humidity;BMP_temperature;BMP_pressure;BME280_temperature;BME280_humidity;BME280_pressure;Samples;Min_cycle;Max_cycle;Signal;HPM_P1;HPM_P2
2021/03/19 00:01:50;;;;;;;21.35;13.05;;;2.70;99.90;;;;;;5091376;28;20383;-58
2021/03/19 00:04:17;;;;;;;20.05;12.77;;;3.90;99.90;;;;;;5070595;28;20443;-58
2021/03/19 00:06:42;;;;;;;22.10;13.15;;;2.80;99.90;;;;;;5089741;28;20485;-58
2021/03/19 00:09:09;;;;;;;20.42;12.88;;;2.80;99.90;;;;;;5091711;28;20489;-58
2021/03/19 00:11:36;;;;;;;19.70;13.00;;;3.40;99.90;;;;;;5090079;28;20377;-58
2021/03/19 00:14:03;;;;;;;25.00;12.93;;;5.10;99.90;;;;;;5090402;28;20394;-58
2021/03/19 00:16:29;;;;;;;23.65;13.13;;;2.70;99.90;;;;;;5091081;28;20377;-58
2021/03/19 00:18:54;;;;;;;24.87;14.10;;;2.70;99.90;;;;;;5090907;28;20396;-59
2021/03/19 00:21:20;;;;;;;19.58;12.18;;;5.30;99.90;;;;;;5086029;28;20794;-58
2021/03/19 00:23:45;;;;;;;21.40;13.07;;;2.80;99.90;;;;;;5089122;28;20388;-58
2021/03/19 00:26:11;;;;;;;19.47;12.27;;;2.80;99.90;;;;;;5091585;28;20394;-58
2021/03/19 00:28:37;;;;;;;21.10;12.60;;;2.90;99.90;;;;;;5089111;28;20418;-59
2021/03/19 00:31:03;;;;;;;19.83;12.87;;;2.90;99.90;;;;;;5071824;28;20900;-59
2021/03/19 00:33:28;;;;;;;19.63;13.20;;;2.90;99.90;;;;;;5091188;28;20382;-58
2021/03/19 00:35:54;;;;;;;22.23;12.18;;;2.80;99.90;;;;;;5089941;28;20440;-58
2021/03/19 00:38:20;;;;;;;23.90;13.47;;;2.80;99.90;;;;;;5090927;28;20456;-58
2021/03/19 00:40:45;;;;;;;17.58;11.75;;;5.00;99.90;;;;;;5084217;28;20467;-58
2021/03/19 00:43:13;;;;;;;22.20;13.05;;;2.80;99.90;;;;;;5090446;28;20456;-58
2021/03/19 00:45:40;;;;;;;20.30;12.73;;;2.80;99.90;;;;;;5090583;28;20474;-59
2021/03/19 00:48:05;;;;;;;22.73;13.48;;;2.70;99.90;;;;;;5089748;28;20441;-59
2021/03/19 00:50:40;;;;;;;20.60;12.60;;;2.70;99.90;;;;;;5090386;28;20441;-59
2021/03/19 00:53:06;;;;;;;21.45;13.13;;;2.80;99.90;;;;;;5089778;28;20447;-59
2021/03/19 00:55:33;;;;;;;20.05;12.88;;;3.10;99.90;;;;;;5089985;28;20752;-59
2021/03/19 00:57:59;;;;;;;24.40;14.10;;;3.10;99.90;;;;;;5086401;28;20883;-59
2021/03/19 01:00:28;;;;;;;23.58;13.18;;;2.80;99.90;;;;;;5089035;28;20394;-57
2021/03/19 01:02:53;;;;;;;21.67;12.63;;;4.50;99.90;;;;;;5084510;28;20858;-59
2021/03/19 01:05:22;;;;;;;20.30;13.27;;;2.70;99.90;;;;;;5087281;28;20382;-59
2021/03/19 01:07:48;;;;;;;23.52;13.77;;;2.70;99.90;;;;;;5078164;28;20465;-59
2021/03/19 01:10:20;;;;;;;21.20;12.60;;;3.40;99.90;;;;;;5069534;28;20378;-59
2021/03/19 01:12:46;;;;;;;23.10;13.77;;;2.80;99.90;;;;;;5073864;28;20380;-59
2021/03/19 01:15:12;;;;;;;22.23;13.40;;;2.80;99.90;;;;;;5088796;28;20419;-59
2021/03/19 01:17:38;;;;;;;22.25;13.07;;;2.80;99.90;;;;;;5089920;28;20457;-59
2021/03/19 01:20:10;;;;;;;22.87;13.60;;;5.00;99.90;;;;;;5084694;28;20538;-59
2021/03/19 01:22:35;;;;;;;20.45;12.98;;;2.90;99.90;;;;;;5089003;28;20390;-59
2021/03/19 01:25:03;;;;;;;23.75;14.00;;;2.80;99.90;;;;;;5089433;28;20713;-59
2021/03/19 01:27:29;;;;;;;23.23;13.70;;;2.80;99.90;;;;;;5089548;28;20768;-58
2021/03/19 01:29:54;;;;;;;23.57;13.73;;;2.80;99.90;;;;;;5088538;28;20481;-59
2021/03/19 01:32:20;;;;;;;22.40;13.50;;;2.80;99.90;;;;;;5083035;28;20382;-59
2021/03/19 01:34:45;;;;;;;41.07;13.50;;;3.50;99.90;;;;;;5087707;28;20406;-59
2021/03/19 01:37:11;;;;;;;23.15;14.57;;;2.90;99.90;;;;;;5090487;28;20377;-59
2021/03/19 01:39:37;;;;;;;23.25;13.02;;;4.30;99.90;;;;;;5086070;28;20391;-59
2021/03/19 01:42:04;;;;;;;21.87;13.67;;;3.20;99.90;;;;;;5088948;28;20498;-59
2021/03/19 01:44:42;;;;;;;24.45;13.70;;;2.90;99.90;;;;;;5068808;28;20410;-59
2021/03/19 01:47:45;;;;;;;23.25;13.65;;;3.00;99.90;;;;;;5059572;28;20405;-59
2021/03/19 01:50:48;;;;;;;23.48;14.07;;;3.00;99.90;;;;;;5062616;28;20734;-59
2021/03/19 01:53:51;;;;;;;24.00;13.45;;;2.90;99.90;;;;;;5089812;28;20396;-59
2021/03/19 01:56:54;;;;;;;22.92;13.88;;;2.80;99.90;;;;;;5088915;28;20394;-59
2021/03/19 01:59:57;;;;;;;22.08;13.65;;;2.80;99.90;;;;;;5088712;28;20903;-58
2021/03/19 02:03:01;;;;;;;23.00;13.48;;;2.80;99.90;;;;;;5077650;28;20376;-58
2021/03/19 02:06:04;;;;;;;23.35;13.93;;;2.60;99.90;;;;;;5081250;28;20374;-60
2021/03/19 02:09:07;;;;;;;19.80;12.73;;;2.60;99.90;;;;;;5088190;28;20412;-57
2021/03/19 02:12:09;;;;;;;22.73;13.75;;;2.60;99.90;;;;;;5088070;28;20489;-59
2021/03/19 02:15:12;;;;;;;22.50;14.10;;;2.60;99.90;;;;;;5089043;28;20408;-60
2021/03/19 02:18:16;;;;;;;27.20;13.43;;;2.40;99.90;;;;;;5088399;28;20477;-57
2021/03/19 02:21:18;;;;;;;22.53;12.57;;;2.30;99.90;;;;;;5089083;28;20712;-59
2021/03/19 02:24:21;;;;;;;19.65;12.65;;;2.30;99.90;;;;;;5089122;28;20389;-59
2021/03/19 02:27:24;;;;;;;27.42;13.20;;;2.30;99.90;;;;;;5086994;28;20394;-59
2021/03/19 02:30:27;;;;;;;22.40;12.95;;;2.40;99.90;;;;;;5088551;28;20748;-59
2021/03/19 02:32:53;;;;;;;26.58;14.27;;;2.40;99.90;;;;;;5086018;28;20477;-60
2021/03/19 02:35:21;;;;;;;26.45;14.32;;;3.40;99.90;;;;;;5087058;28;20469;-59
2021/03/19 02:37:47;;;;;;;30.50;14.48;;;2.40;99.90;;;;;;5092126;28;20419;-59
2021/03/19 02:40:19;;;;;;;25.67;14.80;;;2.40;99.90;;;;;;5092574;28;20438;-58
2021/03/19 02:42:45;;;;;;;27.25;15.40;;;2.40;99.90;;;;;;5092152;28;20669;-59
2021/03/19 02:45:14;;;;;;;30.20;16.37;;;4.70;99.90;;;;;;5084999;28;20949;-59
2021/03/19 02:47:40;;;;;;;26.77;15.50;;;2.50;99.90;;;;;;5092550;28;20401;-59
2021/03/19 02:50:08;;;;;;;28.40;15.60;;;3.60;99.90;;;;;;5093475;28;20481;-59
2021/03/19 02:52:38;;;;;;;30.10;16.77;;;2.40;99.90;;;;;;5089638;28;20906;-59
2021/03/19 02:55:06;;;;;;;31.95;17.95;;;2.30;99.90;;;;;;5093517;28;20370;-59
2021/03/19 02:57:32;;;;;;;30.00;18.05;;;2.30;99.90;;;;;;5091015;28;20947;-59
2021/03/19 02:59:57;;;;;;;28.30;16.85;;;2.20;99.90;;;;;;5093378;28;20524;-59
2021/03/19 03:02:23;;;;;;;31.80;17.50;;;2.10;99.90;;;;;;5093454;28;20851;-59
2021/03/19 03:04:49;;;;;;;33.83;17.95;;;2.20;99.90;;;;;;5080943;28;20482;-59
2021/03/19 03:07:24;;;;;;;32.30;18.80;;;2.50;99.90;;;;;;5092472;28;20446;-59
2021/03/19 03:09:50;;;;;;;34.72;18.85;;;2.20;99.90;;;;;;5090752;28;20390;-59
2021/03/19 03:12:16;;;;;;;33.60;18.35;;;2.20;99.90;;;;;;5091847;28;20394;-58
2021/03/19 03:14:42;;;;;;;34.63;17.23;;;2.20;99.90;;;;;;5091879;28;20479;-59
2021/03/19 03:17:09;;;;;;;33.17;18.70;;;2.30;99.90;;;;;;5091353;28;20398;-59
2021/03/19 03:19:35;;;;;;;35.30;19.30;;;2.40;99.90;;;;;;5086765;28;20374;-58
2021/03/19 03:22:01;;;;;;;30.75;18.17;;;3.30;99.90;;;;;;5091881;28;20758;-58
2021/03/19 03:24:28;;;;;;;33.53;18.60;;;2.60;99.90;;;;;;5092424;28;20423;-57
2021/03/19 03:26:54;;;;;;;30.75;18.90;;;2.50;99.90;;;;;;5075580;28;20423;-59
2021/03/19 03:29:22;;;;;;;30.50;18.67;;;2.60;99.90;;;;;;5089310;28;20390;-59
2021/03/19 03:31:49;;;;;;;35.58;20.40;;;2.60;99.90;;;;;;5089562;28;20482;-59
2021/03/19 03:34:14;;;;;;;36.85;19.45;;;2.60;99.90;;;;;;5086588;28;20381;-59
2021/03/19 03:36:41;;;;;;;31.50;18.00;;;2.60;99.90;;;;;;5090057;28;20830;-59
2021/03/19 03:39:11;;;;;;;34.40;19.00;;;2.70;99.90;;;;;;5079149;28;20393;-59
2021/03/19 03:41:36;;;;;;;30.15;18.00;;;2.60;99.90;;;;;;5091246;28;20389;-59
2021/03/19 03:44:03;;;;;;;32.60;18.43;;;2.50;99.90;;;;;;5092780;28;20386;-59
2021/03/19 03:46:29;;;;;;;43.03;20.77;;;2.50;99.90;;;;;;5091372;28;20422;-57
2021/03/19 03:48:56;;;;;;;38.88;19.45;;;2.60;99.90;;;;;;5090395;28;20884;-59
2021/03/19 03:51:24;;;;;;;36.50;20.85;;;4.00;99.90;;;;;;5092241;28;20915;-59
2021/03/19 03:53:50;;;;;;;34.78;20.05;;;4.20;99.90;;;;;;5090397;28;20469;-58
2021/03/19 03:56:16;;;;;;;38.10;20.60;;;2.80;99.90;;;;;;5092521;28;20509;-59
2021/03/19 03:58:43;;;;;;;35.58;19.40;;;3.00;99.90;;;;;;5077312;28;20395;-59
2021/03/19 04:01:09;;;;;;;43.25;22.10;;;5.10;99.90;;;;;;5091340;28;20402;-59
2021/03/19 04:03:36;;;;;;;43.27;22.00;;;2.90;99.90;;;;;;5091555;28;20738;-59
2021/03/19 04:06:02;;;;;;;36.70;19.58;;;3.60;99.90;;;;;;5088994;28;20433;-58
2021/03/19 04:08:29;;;;;;;33.87;20.40;;;2.80;99.90;;;;;;5073434;28;20459;-57
2021/03/19 04:10:57;;;;;;;32.10;19.10;;;4.40;99.90;;;;;;5090708;28;20776;-58
2021/03/19 04:13:24;;;;;;;32.72;19.58;;;2.90;99.90;;;;;;5090487;28;20485;-58
2021/03/19 04:15:51;;;;;;;30.33;18.03;;;4.80;99.90;;;;;;5091037;28;20382;-59
2021/03/19 04:18:17;;;;;;;34.13;18.97;;;5.10;99.90;;;;;;5090628;28;20397;-58
2021/03/19 04:20:45;;;;;;;33.78;19.27;;;3.00;99.90;;;;;;5090687;28;20374;-59
2021/03/19 04:23:11;;;;;;;34.17;19.55;;;3.40;99.90;;;;;;5091013;28;20440;-58
2021/03/19 04:25:37;;;;;;;32.15;19.15;;;3.00;99.90;;;;;;5088527;28;20402;-58
2021/03/19 04:28:07;;;;;;;35.03;19.65;;;3.70;99.90;;;;;;5091560;28;20467;-59
2021/03/19 04:30:39;;;;;;;38.17;20.17;;;4.40;99.90;;;;;;5089264;28;20485;-59
2021/03/19 04:33:06;;;;;;;37.77;21.90;;;3.20;99.90;;;;;;5086536;28;20375;-59
2021/03/19 04:35:34;;;;;;;34.33;19.40;;;3.10;99.90;;;;;;5089416;28;20471;-58
2021/03/19 04:38:03;;;;;;;32.73;18.93;;;4.80;99.90;;;;;;5091265;28;20386;-59
2021/03/19 04:40:30;;;;;;;35.50;20.00;;;3.40;99.90;;;;;;5089061;28;20393;-57
2021/03/19 04:42:56;;;;;;;39.58;19.90;;;3.20;99.90;;;;;;5091172;28;20465;-61
2021/03/19 04:45:23;;;;;;;36.20;21.38;;;3.20;99.90;;;;;;5090908;28;20432;-59
2021/03/19 04:47:49;;;;;;;37.67;21.90;;;3.20;99.90;;;;;;5088999;28;20501;-59
2021/03/19 04:50:15;;;;;;;34.87;21.00;;;4.50;99.90;;;;;;5081064;28;20460;-59
2021/03/19 04:52:41;;;;;;;36.40;21.88;;;3.30;99.90;;;;;;5080237;28;20504;-60
2021/03/19 04:55:08;;;;;;;38.03;21.77;;;3.20;99.90;;;;;;5090733;28;20468;-59
2021/03/19 04:57:35;;;;;;;37.63;20.98;;;3.20;99.90;;;;;;5089708;28;20390;-59
2021/03/19 05:00:01;;;;;;;36.05;20.83;;;3.30;99.90;;;;;;5083591;28;20396;-59
2021/03/19 05:02:35;;;;;;;40.88;22.15;;;3.30;99.90;;;;;;5070978;28;20379;-59
2021/03/19 05:05:02;;;;;;;41.40;23.02;;;3.30;99.90;;;;;;5076503;28;20418;-58
2021/03/19 05:07:28;;;;;;;38.93;21.37;;;3.30;99.90;;;;;;5090800;28;20863;-59
2021/03/19 05:09:54;;;;;;;43.13;22.17;;;3.40;99.90;;;;;;5071774;28;20387;-59
2021/03/19 05:12:19;;;;;;;38.55;21.92;;;5.30;99.90;;;;;;5083153;28;20476;-59
2021/03/19 05:14:45;;;;;;;37.67;21.60;;;3.20;99.90;;;;;;5079902;28;20380;-59
2021/03/19 05:17:11;;;;;;;41.00;23.00;;;5.70;99.90;;;;;;5086856;28;20401;-58
2021/03/19 05:19:37;;;;;;;40.35;23.05;;;3.10;99.90;;;;;;5089072;28;20366;-58
2021/03/19 05:22:03;;;;;;;41.92;22.08;;;3.60;99.90;;;;;;5085239;28;20393;-58
2021/03/19 05:24:29;;;;;;;39.45;21.77;;;3.20;99.90;;;;;;5081517;28;20378;-58
2021/03/19 05:26:55;;;;;;;35.15;20.00;;;2.90;99.90;;;;;;5090543;28;20438;-57
2021/03/19 05:29:20;;;;;;;34.63;20.77;;;2.90;99.90;;;;;;5088894;28;20394;-59
2021/03/19 05:31:46;;;;;;;38.88;21.38;;;2.90;99.90;;;;;;5088968;28;20416;-59
2021/03/19 05:34:13;;;;;;;40.40;22.10;;;2.90;99.90;;;;;;5089773;28;20838;-59
2021/03/19 05:36:39;;;;;;;42.95;23.00;;;2.90;99.90;;;;;;5088368;28;20480;-58
2021/03/19 05:39:06;;;;;;;38.10;21.30;;;3.20;99.90;;;;;;5090066;28;20385;-59
2021/03/19 05:41:35;;;;;;;38.88;21.45;;;2.90;99.90;;;;;;5089312;28;20395;-57
2021/03/19 05:44:03;;;;;;;38.03;22.33;;;2.90;99.90;;;;;;5072285;28;20396;-60
2021/03/19 05:46:37;;;;;;;40.55;22.52;;;4.30;99.90;;;;;;5070469;28;20853;-57
2021/03/19 05:49:09;;;;;;;41.70;23.43;;;4.90;99.90;;;;;;5070315;28;20432;-59
2021/03/19 05:51:48;;;;;;;41.87;22.73;;;3.00;99.90;;;;;;5088535;28;20386;-59
2021/03/19 05:54:20;;;;;;;41.00;23.00;;;3.00;99.90;;;;;;5090126;28;20841;-59
2021/03/19 05:56:48;;;;;;;41.00;22.45;;;3.00;99.90;;;;;;5089664;28;20398;-59
2021/03/19 05:59:14;;;;;;;40.85;24.05;;;2.90;99.90;;;;;;5090193;28;20386;-59
2021/03/19 06:01:40;;;;;;;37.27;22.63;;;2.90;99.90;;;;;;5080577;28;20384;-58
2021/03/19 06:04:15;;;;;;;38.80;22.47;;;5.10;99.90;;;;;;5069900;28;20379;-59
2021/03/19 06:06:50;;;;;;;40.83;23.35;;;5.00;99.90;;;;;;5071646;28;20425;-59
2021/03/19 06:09:25;;;;;;;44.03;24.47;;;2.70;99.90;;;;;;5058841;28;20908;-59
2021/03/19 06:11:55;;;;;;;40.70;23.17;;;2.90;99.90;;;;;;5078312;28;20408;-59
2021/03/19 06:14:24;;;;;;;42.92;23.80;;;3.50;99.90;;;;;;5081957;28;20840;-59
2021/03/19 06:17:09;;;;;;;40.58;23.55;;;3.00;99.90;;;;;;5085773;28;20480;-59
2021/03/19 06:19:39;;;;;;;39.97;24.15;;;3.10;99.90;;;;;;5085984;28;20470;-59
2021/03/19 06:22:18;;;;;;;42.33;23.88;;;5.40;99.90;;;;;;5090489;28;20378;-59
2021/03/19 06:24:52;;;;;;;37.45;23.50;;;3.20;99.90;;;;;;5095949;28;20382;-59
2021/03/19 06:27:28;;;;;;;40.90;23.17;;;4.10;99.90;;;;;;5096638;28;20414;-58
2021/03/19 06:29:59;;;;;;;37.50;22.73;;;3.30;99.90;;;;;;5096362;28;20382;-59
2021/03/19 06:32:31;;;;;;;37.97;20.75;;;3.40;99.90;;;;;;5096871;28;20453;-59
2021/03/19 06:35:20;;;;;;;38.85;21.70;;;3.40;99.90;;;;;;5089705;28;20366;-59
2021/03/19 06:37:50;;;;;;;40.17;22.20;;;3.50;99.90;;;;;;5075372;28;21090;-58
2021/03/19 06:40:16;;;;;;;38.10;21.88;;;3.40;99.90;;;;;;5076186;28;20454;-59
2021/03/19 06:42:42;;;;;;;36.10;21.70;;;3.50;99.90;;;;;;5075001;28;20398;-59
2021/03/19 06:45:14;;;;;;;36.70;21.15;;;3.60;99.90;;;;;;5076150;28;20391;-59
2021/03/19 06:47:59;;;;;;;33.80;20.33;;;3.70;99.90;;;;;;5075346;28;20501;-59
2021/03/19 06:50:25;;;;;;;34.78;20.70;;;3.70;99.90;;;;;;5058590;28;20371;-59
2021/03/19 06:52:52;;;;;;;33.90;19.50;;;4.60;99.90;;;;;;5075750;28;20437;-59
2021/03/19 06:55:39;;;;;;;34.30;19.98;;;3.70;99.90;;;;;;5083382;28;20398;-59
2021/03/19 06:58:05;;;;;;;35.03;20.20;;;3.70;99.90;;;;;;5091819;28;20475;-59
2021/03/19 07:00:38;;;;;;;32.00;18.17;;;3.90;99.90;;;;;;5077096;28;20410;-57
2021/03/19 07:03:16;;;;;;;27.27;16.60;;;3.70;99.90;;;;;;5079885;28;20480;-59
2021/03/19 07:06:10;;;;;;;32.15;18.30;;;3.70;99.90;;;;;;5094848;28;20500;-58
2021/03/19 07:09:05;;;;;;;30.10;18.37;;;3.80;99.90;;;;;;5095159;28;20407;-59
2021/03/19 07:12:07;;;;;;;30.90;18.67;;;3.80;99.90;;;;;;5091262;28;20375;-58
2021/03/19 07:14:55;;;;;;;33.00;18.75;;;3.80;99.90;;;;;;5052870;28;20390;-57
2021/03/19 07:17:27;;;;;;;30.92;18.05;;;5.90;99.90;;;;;;5075902;28;20504;-59
2021/03/19 07:20:11;;;;;;;32.30;18.40;;;3.70;99.90;;;;;;5056626;28;20388;-59
2021/03/19 07:23:11;;;;;;;36.30;19.80;;;4.00;99.90;;;;;;5055252;28;20396;-60
2021/03/19 07:26:03;;;;;;;31.83;17.80;;;3.80;99.90;;;;;;5071336;28;20396;-59
2021/03/19 07:28:52;;;;;;;31.05;19.52;;;3.70;99.90;;;;;;5075227;28;20447;-59
2021/03/19 07:31:56;;;;;;;31.27;17.98;;;3.70;99.90;;;;;;5092522;28;20382;-59
2021/03/19 07:34:41;;;;;;;33.83;19.20;;;3.80;99.90;;;;;;5092454;28;20386;-60
2021/03/19 07:37:34;;;;;;;35.42;19.95;;;3.80;99.90;;;;;;5091324;28;20398;-60
2021/03/19 07:40:16;;;;;;;34.47;19.77;;;3.80;99.90;;;;;;5092224;28;20381;-59
2021/03/19 07:42:59;;;;;;;34.55;20.85;;;3.70;99.90;;;;;;5091381;28;20366;-59
2021/03/19 07:45:32;;;;;;;36.15;20.77;;;3.70;99.90;;;;;;5092055;28;20453;-60
2021/03/19 07:48:12;;;;;;;44.83;20.70;;;3.70;99.90;;;;;;5091876;28;20402;-59
2021/03/19 07:50:44;;;;;;;32.85;18.65;;;3.60;99.90;;;;;;5091145;28;20381;-59
2021/03/19 07:53:22;;;;;;;31.08;17.50;;;5.70;99.90;;;;;;5092015;28;20895;-59
2021/03/19 07:56:00;;;;;;;36.55;19.42;;;5.00;99.90;;;;;;5091037;28;20493;-59
2021/03/19 07:58:34;;;;;;;35.15;18.63;;;3.80;99.90;;;;;;5092463;28;20390;-59
2021/03/19 08:01:33;;;;;;;35.63;19.67;;;3.80;99.90;;;;;;5091485;28;20390;-59
2021/03/19 08:04:20;;;;;;;32.67;17.35;;;3.90;99.90;;;;;;5077281;28;20419;-59
2021/03/19 08:06:53;;;;;;;33.80;18.60;;;3.90;99.90;;;;;;5070571;28;20396;-60
2021/03/19 08:09:27;;;;;;;30.15;16.50;;;5.60;99.90;;;;;;5071530;28;20453;-59
2021/03/19 08:11:59;;;;;;;33.95;18.10;;;3.90;99.90;;;;;;5070762;28;20410;-59
2021/03/19 08:14:55;;;;;;;31.52;17.13;;;3.80;99.90;;;;;;5071510;28;20574;-59
2021/03/19 08:17:49;;;;;;;27.85;15.80;;;3.80;99.90;;;;;;5071469;28;20408;-60
2021/03/19 08:20:17;;;;;;;29.17;17.35;;;3.90;99.90;;;;;;5070882;28;20376;-59
2021/03/19 08:22:53;;;;;;;32.03;18.23;;;4.00;99.90;;;;;;5070219;28;20379;-59
2021/03/19 08:25:24;;;;;;;31.75;17.40;;;4.10;99.90;;;;;;5070852;28;20431;-59
2021/03/19 08:28:05;;;;;;;30.73;16.50;;;4.10;99.90;;;;;;5052461;28;20912;-59
2021/03/19 08:30:47;;;;;;;29.70;17.05;;;3.80;99.90;;;;;;5071158;28;20437;-60
2021/03/19 08:33:34;;;;;;;25.92;14.57;;;3.90;99.90;;;;;;5071488;28;20830;-60
2021/03/19 08:36:21;;;;;;;30.40;16.75;;;3.90;99.90;;;;;;5070421;28;20368;-59
2021/03/19 08:38:52;;;;;;;25.98;14.77;;;4.20;99.90;;;;;;5070323;28;20418;-60
2021/03/19 08:41:23;;;;;;;25.23;14.23;;;4.70;99.90;;;;;;5070769;28;20833;-60
2021/03/19 08:43:55;;;;;;;25.10;14.32;;;4.70;99.90;;;;;;5070258;28;20475;-60
2021/03/19 08:46:30;;;;;;;23.37;13.17;;;4.80;99.90;;;;;;5070607;28;20879;-60
2021/03/19 08:49:04;;;;;;;26.27;14.15;;;4.70;99.90;;;;;;5070192;28;20392;-60
2021/03/19 08:51:30;;;;;;;26.92;14.50;;;4.70;99.90;;;;;;5070843;28;20865;-59
2021/03/19 08:54:16;;;;;;;25.13;14.10;;;4.80;99.90;;;;;;5069651;28;20411;-59
2021/03/19 08:57:06;;;;;;;24.88;13.98;;;4.60;99.90;;;;;;5069361;28;20407;-59
2021/03/19 08:59:32;;;;;;;23.63;13.02;;;4.50;99.90;;;;;;5051046;28;20396;-59
2021/03/19 09:02:17;;;;;;;22.10;12.32;;;4.40;99.90;;;;;;5070113;28;20453;-59
2021/03/19 09:04:58;;;;;;;24.15;13.15;;;4.30;99.90;;;;;;5089856;28;20374;-58
2021/03/19 09:08:11;;;;;;;23.83;12.90;;;4.30;99.90;;;;;;5090709;28;20803;-59
2021/03/19 09:10:37;;;;;;;25.10;13.68;;;4.10;99.90;;;;;;5076580;28;20737;-59
2021/03/19 09:13:08;;;;;;;24.90;13.13;;;4.00;99.90;;;;;;5090616;28;20389;-59
2021/03/19 09:15:36;;;;;;;23.05;12.45;;;4.20;99.90;;;;;;5090525;28;20438;-57
2021/03/19 09:18:08;;;;;;;24.90;13.32;;;4.20;99.90;;;;;;5090810;28;20468;-59
2021/03/19 09:20:36;;;;;;;22.02;13.07;;;4.20;99.90;;;;;;5090295;28;20378;-57
2021/03/19 09:23:08;;;;;;;23.38;13.32;;;4.50;99.90;;;;;;5090526;28;20374;-60
2021/03/19 09:25:45;;;;;;;25.05;13.23;;;4.50;99.90;;;;;;5089661;28;20447;-56
2021/03/19 09:28:26;;;;;;;20.27;11.75;;;5.60;99.90;;;;;;5090556;28;20418;-60
2021/03/19 09:31:07;;;;;;;21.10;12.10;;;4.50;99.90;;;;;;5089806;28;20431;-60
2021/03/19 09:33:45;;;;;;;20.02;11.20;;;4.90;99.90;;;;;;5090583;28;20386;-60
2021/03/19 09:36:48;;;;;;;19.55;10.63;;;5.40;99.90;;;;;;5090076;28;20378;-60
2021/03/19 09:39:52;;;;;;;17.38;10.23;;;6.50;99.90;;;;;;5088972;28;20393;-61
2021/03/19 09:42:21;;;;;;;17.90;10.30;;;7.00;99.90;;;;;;5071578;28;20410;-60
2021/03/19 09:44:51;;;;;;;18.52;10.70;;;7.30;99.90;;;;;;5088079;28;20398;-58
2021/03/19 09:47:30;;;;;;;15.70;9.65;;;8.00;99.90;;;;;;5089199;28;20891;-60
2021/03/19 09:50:12;;;;;;;14.27;8.70;;;9.10;99.90;;;;;;5087830;28;20450;-60
2021/03/19 09:52:39;;;;;;;14.93;8.60;;;10.00;99.90;;;;;;5087533;28;20386;-59
2021/03/19 09:55:36;;;;;;;16.80;9.88;;;9.40;99.90;;;;;;5090014;28;20462;-60
2021/03/19 09:58:16;;;;;;;16.98;10.27;;;8.40;99.90;;;;;;5088219;28;20394;-60
2021/03/19 10:01:10;;;;;;;20.70;12.07;;;7.40;99.90;;;;;;5088953;28;20878;-60
2021/03/19 10:03:44;;;;;;;20.85;11.50;;;6.70;99.90;;;;;;5078718;28;20386;-58
2021/03/19 10:06:26;;;;;;;18.48;10.10;;;6.10;99.90;;;;;;5083649;28;20394;-60
2021/03/19 10:09:02;;;;;;;18.75;10.85;;;5.60;99.90;;;;;;5087410;28;20836;-59
2021/03/19 10:11:28;;;;;;;17.77;10.40;;;5.40;99.90;;;;;;5089674;28;20500;-60
2021/03/19 10:14:11;;;;;;;17.35;10.20;;;5.60;99.90;;;;;;5088958;28;21093;-60
2021/03/19 10:16:37;;;;;;;16.08;9.40;;;5.80;99.90;;;;;;5088339;28;20386;-58
2021/03/19 10:19:10;;;;;;;15.68;9.55;;;5.20;99.90;;;;;;5089541;28;20425;-60
2021/03/19 10:21:47;;;;;;;16.92;9.40;;;4.80;99.90;;;;;;5087925;28;20511;-57
2021/03/19 10:24:13;;;;;;;16.20;9.43;;;4.60;99.90;;;;;;5088386;28;20390;-60
2021/03/19 10:27:13;;;;;;;18.83;10.57;;;4.70;99.90;;;;;;5088554;28;20492;-58
2021/03/19 10:29:44;;;;;;;16.60;9.25;;;4.80;99.90;;;;;;5054396;28;20429;-58
2021/03/19 10:32:15;;;;;;;14.50;8.38;;;4.90;99.90;;;;;;5089015;28;20782;-59
2021/03/19 10:34:46;;;;;;;15.45;8.10;;;4.70;99.90;;;;;;5086990;28;20737;-60
2021/03/19 10:37:40;;;;;;;14.07;7.68;;;4.70;99.90;;;;;;5088753;28;20410;-60
2021/03/19 10:40:15;;;;;;;10.70;6.65;;;4.60;99.90;;;;;;5071859;28;20385;-60
2021/03/19 10:43:03;;;;;;;11.27;6.40;;;4.50;99.90;;;;;;5089678;28;20477;-60
2021/03/19 10:46:03;;;;;;;12.23;5.82;;;5.20;99.90;;;;;;5086077;28;20397;-60
2021/03/19 10:48:49;;;;;;;9.60;5.45;;;6.30;99.90;;;;;;5015144;28;20903;-60
2021/03/19 10:51:37;;;;;;;9.38;5.43;;;7.50;99.90;;;;;;5089170;28;20453;-60
2021/03/19 10:54:29;;;;;;;8.88;5.13;;;7.40;99.90;;;;;;5087722;28;20398;-60
2021/03/19 10:57:02;;;;;;;9.05;5.50;;;7.30;99.90;;;;;;5074581;28;20410;-60
2021/03/19 10:59:30;;;;;;;10.23;5.40;;;6.50;99.90;;;;;;5072827;28;20386;-59
2021/03/19 11:02:11;;;;;;;10.23;5.70;;;6.10;99.90;;;;;;5091119;28;20397;-59
2021/03/19 11:04:39;;;;;;;10.07;5.45;;;5.90;99.90;;;;;;5080220;28;20528;-58
2021/03/19 11:07:27;;;;;;;10.98;6.00;;;4.70;99.90;;;;;;5092495;28;20402;-58
2021/03/19 11:10:10;;;;;;;8.80;4.60;;;5.90;99.90;;;;;;5091938;28;20382;-59
2021/03/19 11:12:38;;;;;;;8.50;4.90;;;5.70;99.90;;;;;;5091698;28;20405;-57
2021/03/19 11:15:17;;;;;;;9.75;5.47;;;5.40;99.90;;;;;;5092307;28;20739;-59
2021/03/19 11:17:43;;;;;;;9.07;5.60;;;5.40;99.90;;;;;;5091021;28;20397;-59
2021/03/19 11:20:23;;;;;;;11.60;5.83;;;6.20;99.90;;;;;;5092209;28;20501;-60
2021/03/19 11:22:49;;;;;;;11.30;5.93;;;6.40;99.90;;;;;;5091140;28;20408;-60
2021/03/19 11:25:27;;;;;;;9.88;5.45;;;6.10;99.90;;;;;;5091954;28;20725;-59
2021/03/19 11:27:53;;;;;;;11.15;5.70;;;5.40;99.90;;;;;;5090347;28;20413;-61
2021/03/19 11:30:25;;;;;;;10.30;5.70;;;5.30;99.90;;;;;;5092633;28;20421;-59
2021/03/19 11:33:07;;;;;;;10.90;6.10;;;5.40;99.90;;;;;;5091170;28;20366;-59
2021/03/19 11:35:34;;;;;;;11.45;5.70;;;6.00;99.90;;;;;;5091812;28;20393;-59
2021/03/19 11:38:00;;;;;;;11.40;6.90;;;6.10;99.90;;;;;;5090325;28;20394;-59
2021/03/19 11:40:40;;;;;;;12.07;7.15;;;6.60;99.90;;;;;;5091889;28;20386;-59
2021/03/19 11:43:08;;;;;;;13.45;7.13;;;6.40;99.90;;;;;;5090883;28;20397;-62
2021/03/19 11:45:42;;;;;;;17.15;8.13;;;6.20;99.90;;;;;;5092331;28;20511;-59
2021/03/19 11:48:28;;;;;;;15.25;8.18;;;5.70;99.90;;;;;;5091962;28;20406;-58
2021/03/19 11:51:10;;;;;;;17.27;9.27;;;5.70;99.90;;;;;;5091617;28;20470;-59
2021/03/19 11:53:36;;;;;;;19.80;10.18;;;5.60;99.90;;;;;;5092572;28;20419;-59
2021/03/19 11:56:02;;;;;;;17.65;9.65;;;5.60;99.90;;;;;;5091811;28;20466;-60
2021/03/19 11:58:30;;;;;;;17.10;8.32;;;5.80;99.90;;;;;;5092099;28;20390;-61
2021/03/19 12:00:56;;;;;;;17.75;9.48;;;5.50;99.90;;;;;;5072907;28;20389;-59
2021/03/19 12:03:50;;;;;;;17.20;9.82;;;5.60;99.90;;;;;;5082813;28;20391;-59
2021/03/19 12:06:18;;;;;;;16.98;9.07;;;5.60;99.90;;;;;;5071923;28;20417;-60
2021/03/19 12:08:44;;;;;;;18.20;9.10;;;5.40;99.90;;;;;;5070733;28;20431;-59
2021/03/19 12:11:30;;;;;;;18.10;9.27;;;5.20;99.90;;;;;;5070856;28;20408;-60
2021/03/19 12:13:57;;;;;;;15.80;8.38;;;4.70;99.90;;;;;;5070821;28;20384;-59
2021/03/19 12:16:23;;;;;;;18.77;9.10;;;4.30;99.90;;;;;;5071741;28;20377;-61
2021/03/19 12:18:49;;;;;;;21.77;11.65;;;4.00;99.90;;;;;;5070804;28;20380;-59
2021/03/19 12:21:15;;;;;;;18.35;10.30;;;4.30;99.90;;;;;;5071466;28;20397;-61
2021/03/19 12:23:41;;;;;;;18.85;10.35;;;4.90;99.90;;;;;;5070458;28;20406;-58
2021/03/19 12:26:07;;;;;;;20.33;10.45;;;4.30;99.90;;;;;;5071367;28;20481;-61
2021/03/19 12:28:33;;;;;;;17.65;9.40;;;4.40;99.90;;;;;;5071085;28;20410;-58
2021/03/19 12:30:59;;;;;;;18.17;10.10;;;4.40;99.90;;;;;;5070223;28;20455;-58
2021/03/19 12:33:31;;;;;;;20.55;10.13;;;4.60;99.90;;;;;;5071363;28;20475;-60
2021/03/19 12:35:57;;;;;;;18.52;9.20;;;4.90;99.90;;;;;;5070020;28;20931;-59
2021/03/19 12:38:23;;;;;;;19.60;9.82;;;4.80;99.90;;;;;;5071309;28;20384;-60
2021/03/19 12:40:48;;;;;;;18.65;10.27;;;4.80;99.90;;;;;;5070147;28;20462;-59
2021/03/19 12:43:15;;;;;;;18.03;9.83;;;6.10;99.90;;;;;;5053154;28;20392;-59
2021/03/19 12:45:41;;;;;;;18.52;10.40;;;5.10;99.90;;;;;;5070191;28;20391;-57
2021/03/19 12:48:07;;;;;;;17.95;9.77;;;5.30;99.90;;;;;;5070808;28;20596;-61
2021/03/19 12:50:33;;;;;;;24.65;13.27;;;5.20;99.90;;;;;;5070279;28;20383;-60
2021/03/19 12:53:01;;;;;;;20.92;11.70;;;5.30;99.90;;;;;;5070128;28;20367;-60
2021/03/19 12:55:27;;;;;;;21.67;12.18;;;5.40;99.90;;;;;;5070488;28;20387;-59
2021/03/19 12:57:53;;;;;;;20.52;11.57;;;5.80;99.90;;;;;;5069641;28;20384;-59
2021/03/19 13:00:24;;;;;;;22.45;11.57;;;6.00;99.90;;;;;;5070688;28;20513;-59
2021/03/19 13:02:50;;;;;;;18.90;11.10;;;5.70;99.90;;;;;;5056215;28;20401;-59
2021/03/19 13:05:20;;;;;;;16.13;8.83;;;5.70;99.90;;;;;;5090688;28;20374;-58
2021/03/19 13:07:46;;;;;;;21.45;10.20;;;5.60;99.90;;;;;;5088854;28;20410;-58
2021/03/19 13:10:14;;;;;;;20.40;11.35;;;5.50;99.90;;;;;;5091197;28;20389;-59
2021/03/19 13:12:40;;;;;;;18.15;9.70;;;5.50;99.90;;;;;;5072347;28;20401;-57